Catterick Garrison, United Kingdom
Current Conditions -  °F | °C
As of 4:50 AM on Thursday 23 Oct 2014 (Local Time) from EGXE Reporting Station
Few Clouds Few Clouds  
Wind Chill: 11°   Ceiling: Unl
Heat Index: 11°   Visibility: 6mi
Dew Point:   Wind: 9mph
Humidity: 71%   Direction: 210°SSW
Pressure: 29.94"   Gusts: NA
Location:  54.38°N, 1.74°W
Report Text: EGXE 230350Z AUTO 21008KT 9999 FEW240/// 11/06 Q1014
Loading
Personal Weather Stations






























Interactive Weather Map
Tropical Storm Tracking
New forecast layout! Learn more

10-Day Weather Forecast

Advertisements
Track Severe Weather on mobile